Accueil
METAR-TAF:

METAR-TAF

Aéroports :

Aéroport Albert-Picardie

Albert, France

latitude: 49-58-21N, longitude: 002-41-29E, altitude: 111 m

Observation

Le bulletin a été fait il y a 22 minutes, à 19:30 UTC
Vent 7 kt de nord
Température 10°C
Humidité 82%
Pression 1026 hPa
Visibilité 10 km ou plus
pas de nuages en-dessous de 1500 mètres et pas de cumulonimbus.

METAR: LFAQ 191930Z AUTO 35007KT CAVOK 10/07 Q1026

Heure: 21:52 (19:52 UTC)

Prévision

Le bulletin a été fait il y a 5 heures et 52 minutes, à 14:00 UTC
Prévision valable du 19 à 15 UTC au 19 à 24 UTC
Vent 10 kt de nord/nord-est
Visibilité 10 km ou plus
Nuages épars à une hauteur de 3500 ft

TAF: LFAQ 191400Z 1915/1924 03010KT 9999 SCT035

Observations et prévisions météorologiques de plus de 4000 aéroports (messages METAR et TAF).

Les stations disponibles sont représentées par des disques jaunes et rouges sur la carte.

Passer la souris dessus pour voir le nom de la station.

Cliquer dessus pour voir les observations et prévisions météorologiques.

Pour changer de carte: cliquez sur les boutons verts avec une croix noire pour zoomer, sur le bouton vert avec un tiret pour effectuer un zoom arrière, ou sur les flèches vertes pour les cartes adjacentes.


METAR-TAF: